Weather forecasts are calculated to a 100 metre elevation grid, providing ultimate accuracy for high elevation routes. See the “severe weather” column for any noteworthy conditions.
For use of the snow symbols: HWC = high water content (wet snow). MWC = moderate water content. NWC = low water content (powder type). Confidence of snow accumulation is increased during incidence of NWC.


Time. Apparent Temperature Rain Cloud Dir Avg. Wind Gust. Wind Snow Accum. Chance of settle. Freezing height(beta) Dew Point Severe Weather
Mon 14th 05:00 14.3°C 0.0 mm 11% 7 mph 13 mph 0.00 cm % 2,380m 10.9°C
06:00 14.0°C 0.0 mm 14% 12 mph 22 mph 0.00 cm % 2,333m 11.0°C
07:00 13.9°C 0.0 mm 47% 13 mph 24 mph 0.00 cm % 2,317m 11.1°C
08:00 13.2°C 0.0 mm 64% 13 mph 23 mph 0.00 cm % 2,642m 11.2°C
09:00 13.3°C 0.0 mm 82% 18 mph 32 mph 0.00 cm % 2,668m 11.3°C
10:00 12.3°C 0.0 mm 100% 16 mph 30 mph 0.00 cm % 2,458m 10.9°C
11:00 12.3°C 0.0 mm 100% 16 mph 29 mph 0.00 cm % 2,045m 9.9°C
12:00 12.0°C 0.0 mm 100% 15 mph 27 mph 0.00 cm % 2,006m 8.8°C
13:00 12.7°C 0.0 mm 100% 15 mph 27 mph 0.00 cm % 1,690m 7.9°C
14:00 14.2°C 0.0 mm 100% 17 mph 31 mph 0.00 cm % 1,415m 6.8°C
15:00 13.5°C 0.0 mm 100% 17 mph 32 mph 0.00 cm % 1,354m 4.9°C
16:00 12.8°C 0.0 mm 100% 16 mph 29 mph 0.00 cm % 1,275m 5.2°C
17:00 11.3°C 0.0 mm 100% 14 mph 25 mph 0.00 cm % 1,127m 4.7°C
18:00 11.0°C 0.0 mm 100% 12 mph 21 mph 0.00 cm % 1,467m 5.2°C
19:00 10.4°C 0.0 mm 100% 11 mph 19 mph 0.00 cm % 1,387m 5.0°C
20:00 10.0°C 0.0 mm 100% 9 mph 17 mph 0.00 cm % 1,328m 4.6°C
21:00 7.9°C 0.0 mm 100% 6 mph 12 mph 0.00 cm % 1,308m 4.3°C
22:00 6.9°C 0.0 mm 100% 6 mph 10 mph 0.00 cm % 1,154m 4.5°C
23:00 6.3°C 0.0 mm 91% 3 mph 6 mph 0.00 cm % 1,044m 4.1°C
Tue 15th 00:00 5.9°C mist/fog in vicinity 0.0 mm 92% 2 mph 4 mph 0.00 cm % 1,186m 3.9°C poor vis, mist
01:00 5.8°C mist/fog 0.0 mm 100% 2 mph 3 mph 0.00 cm % 1,162m 4.0°C poor vis, mist
02:00 5.6°C mist/fog 0.0 mm 80% 2 mph 5 mph 0.00 cm % 1,122m 4.2°C poor vis, mist
03:00 5.5°C mist/fog in vicinity 0.0 mm 87% 3 mph 6 mph 0.00 cm % 1,098m 4.3°C poor vis, mist
04:00 5.3°C mist/fog 0.0 mm 90% 2 mph 3 mph 0.00 cm % 1,068m 4.1°C poor vis, mist
05:00 6.7°C mist/fog 0.0 mm 92% 1 mph 3 mph 0.00 cm % 1,342m 5.5°C poor vis, mist
06:00 8.6°C mist/fog in vicinity 0.0 mm 93% 3 mph 5 mph 0.00 cm % 1,437m 6.0°C poor vis, mist
07:00 9.8°C mist/fog in vicinity 0.0 mm 100% 3 mph 5 mph 0.00 cm % 1,635m 5.8°C poor vis, mist
08:00 11.2°C 0.0 mm 100% 3 mph 6 mph 0.00 cm % 1,487m 5.8°C
09:00 12.2°C 0.0 mm 100% 4 mph 7 mph 0.00 cm % 1,217m 5.8°C
10:00 13.2°C 0.0 mm 97% 5 mph 10 mph 0.00 cm % 1,317m 6.0°C
11:00 14.1°C 0.0 mm 98% 7 mph 13 mph 0.00 cm % 1,414m 6.7°C
12:00 15.1°C 0.0 mm 94% 9 mph 16 mph 0.00 cm % 1,510m 7.3°C
13:00 15.6°C 0.0 mm 84% 11 mph 20 mph 0.00 cm % 1,564m 7.8°C
14:00 16.1°C 0.0 mm 81% 12 mph 21 mph 0.00 cm % 1,608m 8.1°C
15:00 16.3°C 0.0 mm 86% 12 mph 22 mph 0.00 cm % 1,627m 8.3°C
16:00 16.3°C 0.0 mm 87% 13 mph 23 mph 0.00 cm % 1,627m 8.7°C
17:00 16.1°C 0.0 mm 78% 12 mph 23 mph 0.00 cm % 1,606m 9.5°C
18:00 15.9°C 0.0 mm 70% 11 mph 20 mph 0.00 cm % 2,123m 10.7°C
19:00 14.8°C 0.0 mm 34% 10 mph 19 mph 0.00 cm % 2,469m 10.8°C
20:00 13.1°C 0.0 mm 52% 9 mph 17 mph 0.00 cm % 2,185m 10.5°C
21:00 11.5°C 0.0 mm 64% 9 mph 17 mph 0.00 cm % 2,296m 9.7°C
22:00 10.5°C 0.0 mm 56% 8 mph 15 mph 0.00 cm % 2,094m 8.7°C
23:00 9.7°C 0.0 mm 51% 8 mph 15 mph 0.00 cm % 1,930m 7.7°C
Wed 16th 00:00 8.8°C 0.0 mm 55% 8 mph 15 mph 0.00 cm % 1,463m 6.0°C
01:00 8.3°C 0.0 mm 80% 8 mph 15 mph 0.00 cm % 1,379m 4.5°C
02:00 7.7°C 0.0 mm 70% 8 mph 14 mph 0.00 cm % 1,032m 2.9°C
03:00 7.4°C 0.0 mm 50% 7 mph 13 mph 0.00 cm % 981m 1.8°C
04:00 7.4°C 0.0 mm 62% 7 mph 13 mph 0.00 cm % 741m 1.0°C
05:00 8.4°C 0.0 mm 69% 6 mph 12 mph 0.00 cm % 1,125m 2.6°C
06:00 10.5°C 0.0 mm 74% 6 mph 10 mph 0.00 cm % 1,396m 4.9°C
07:00 12.2°C 0.0 mm 93% 7 mph 14 mph 0.00 cm % 1,217m 6.0°C
08:00 13.9°C 0.0 mm 89% 9 mph 16 mph 0.00 cm % 1,855m 8.1°C
09:00 15.3°C 0.0 mm 81% 10 mph 19 mph 0.00 cm % 2,036m 9.9°C
10:00 16.5°C 0.0 mm 61% 12 mph 21 mph 0.00 cm % 2,195m 10.9°C
11:00 17.4°C 0.0 mm 54% 12 mph 21 mph 0.00 cm % 2,321m 11.6°C
12:00 17.8°C 0.0 mm 53% 11 mph 21 mph 0.00 cm % 1,784m 11.6°C
13:00 18.2°C 0.0 mm 67% 11 mph 19 mph 0.00 cm % 1,818m 11.6°C
14:00 18.1°C 0.0 mm 67% 10 mph 18 mph 0.00 cm % 1,814m 11.9°C
15:00 18.0°C 0.0 mm 67% 9 mph 17 mph 0.00 cm % 2,403m 12.2°C
16:00 17.5°C 0.0 mm 69% 6 mph 11 mph 0.00 cm % 2,339m 12.3°C
17:00 17.8°C 0.0 mm 69% 5 mph 9 mph 0.00 cm % 2,367m 12.4°C
18:00 17.6°C 0.0 mm 69% 4 mph 8 mph 0.00 cm % 2,344m 12.8°C
19:00 16.3°C 0.0 mm 37% 6 mph 10 mph 0.00 cm % 2,723m 13.3°C
20:00 14.0°C 0.0 mm 26% 5 mph 10 mph 0.00 cm % 2,794m 12.2°C
21:00 12.4°C 0.0 mm 37% 6 mph 12 mph 0.00 cm % 2,480m 11.2°C
22:00 11.5°C 0.0 mm 31% 5 mph 9 mph 0.00 cm % 2,298m 10.5°C
23:00 11.1°C 0.0 mm 43% 5 mph 8 mph 0.00 cm % 2,216m 10.1°C
Thu 17th 00:00 11.5°C 0.0 mm 52% 6 mph 10 mph 0.00 cm % 2,306m 10.5°C
01:00 11.1°C mist/fog in vicinity 0.0 mm 100% 5 mph 9 mph 0.00 cm % 2,218m 9.9°C poor vis, mist
02:00 11.5°C mist/fog in vicinity 0.0 mm 100% 4 mph 8 mph 0.00 cm % 2,306m 10.1°C poor vis, mist
03:00 11.3°C 0.0 mm 100% 6 mph 11 mph 0.00 cm % 2,256m 9.5°C
04:00 10.7°C 0.0 mm 100% 6 mph 12 mph 0.00 cm % 2,144m 8.7°C
05:00 11.1°C 0.0 mm 100% 6 mph 10 mph 0.00 cm % 2,216m 9.1°C
06:00 11.2°C 0.0 mm 100% 5 mph 9 mph 0.00 cm % 1,871m 9.0°C
07:00 11.5°C 0.0 mm 100% 5 mph 10 mph 0.00 cm % 1,923m 9.3°C
08:00 11.8°C 0.0 mm 100% 6 mph 11 mph 0.00 cm % 1,965m 9.2°C
09:00 11.6°C 0.0 mm 100% 8 mph 14 mph 0.00 cm % 1,937m 9.2°C
10:00 12.0°C 0.0 mm 100% 7 mph 13 mph 0.00 cm % 2,002m 9.8°C
11:00 12.0°C 0.0 mm 100% 6 mph 12 mph 0.00 cm % 2,396m 10.4°C
12:00 11.8°C light rain 0.3 mm 100% 7 mph 12 mph 0.00 cm % 2,368m 10.4°C
13:00 11.6°C light rain 0.6 mm 100% 7 mph 13 mph 0.00 cm % 2,314m 10.6°C
14:00 11.2°C light rain 1.0 mm 100% 8 mph 14 mph 0.00 cm % 2,248m 10.6°C
15:00 11.1°C light rain 0.6 mm 100% 8 mph 15 mph 0.00 cm % 2,210m 10.3°C
16:00 10.8°C rainfall in vicinity 0.2 mm 100% 8 mph 15 mph 0.00 cm % 2,166m 9.8°C
17:00 10.4°C moderate rain 1.7 mm 100% 7 mph 13 mph 0.00 cm % 2,070m 9.6°C
18:00 10.0°C moderate rain 4.8 mm 100% 7 mph 13 mph 0.00 cm % 2,002m 9.6°C Surface water
19:00 10.2°C moderate rain 2.2 mm 100% 7 mph 12 mph 0.00 cm % 2,042m 9.8°C
20:00 10.2°C rainfall in vicinity 0.2 mm 100% 6 mph 11 mph 0.00 cm % 2,048m 9.6°C
21:00 9.4°C mist/fog in vicinity 0.0 mm 97% 6 mph 11 mph 0.00 cm % 1,888m 8.8°C poor vis, mist
22:00 8.7°C mist/fog in vicinity 0.0 mm 88% 6 mph 11 mph 0.00 cm % 1,740m 7.9°C poor vis, mist
23:00 8.9°C mist/fog in vicinity 0.0 mm 90% 6 mph 10 mph 0.00 cm % 1,776m 8.1°C poor vis, mist
Fri 18th 00:00 9.2°C 0.0 mm 90% 6 mph 11 mph 0.00 cm % 1,832m 8.2°C
01:00 8.9°C 0.0 mm 82% 7 mph 13 mph 0.00 cm % 1,780m 7.7°C
02:00 8.4°C 0.0 mm 75% 8 mph 15 mph 0.00 cm % 1,684m 7.2°C
03:00 7.9°C 0.0 mm 71% 9 mph 16 mph 0.00 cm % 1,580m 6.7°C
04:00 7.7°C 0.0 mm 72% 8 mph 15 mph 0.00 cm % 1,540m 6.7°C

Accurate travel and weather information for the Peak District